KFDK

Frederick Municipal Airport

Frederick, Maryland, USA
METAR KFDK 141647Z 00000KT 2SM BR OVC003 05/04 A3040
Observed Flight Rules
Dec-14 @ 16:47 UTC (17 minutes ago) Instrument Flight Rules
Visibility Clouds Conditions
2 miles
  • Overcast at 300' AGL
  • Mist
Temperatures Readings
Current 5°C / 41°F
Dewpoint 4°C / 39°F
Humidity 93%
Altimeter 30.4" Hg
Pressure 1029 hPa
Elevation 92
METAR KFDK 141647Z 00000KT 2SM BR OVC003 05/04 A3040
Observed Flight Rules
Dec-14 @ 16:47 UTC
(17 minutes ago)
LIFR
Clouds
  • Overcast at 300' AGL
Conditions
  • Mist
Temperature Dewpoint
5°C / 41°F 4°C / 39°F
Humidity Altimeter Pressure
93% 30.4" Hg 1029 hPa